Time;durP1;ratioP1;P1;durP2;ratioP2;P2;SDS_P1;SDS_P2;PMS_P1;PMS_P2;Temp;Humidity;BMP_temperature;BMP_pressure;BME280_temperature;BME280_humidity;BME280_pressure;Samples;Min_cycle;Max_cycle;Signal;HPM_P1;HPM_P2
2022/11/12 00:02:19;;;;;;;1.88;1.55;;;6.90;99.90;;;;;;4874487;29;20540;-80
2022/11/12 00:04:45;;;;;;;2.75;1.70;;;6.80;99.90;;;;;;4891353;29;20067;-79
2022/11/12 00:07:11;;;;;;;2.25;1.65;;;6.80;99.90;;;;;;4891624;29;20067;-73
2022/11/12 00:09:36;;;;;;;2.80;1.50;;;6.80;99.90;;;;;;4865462;29;20417;-73
2022/11/12 00:12:02;;;;;;;2.58;1.40;;;6.80;99.90;;;;;;4890169;29;20151;-73
2022/11/12 00:14:28;;;;;;;1.75;1.35;;;6.70;99.90;;;;;;4909589;29;20047;-73
2022/11/12 00:16:53;;;;;;;1.65;1.30;;;6.70;99.90;;;;;;4892635;29;20047;-74
2022/11/12 00:19:19;;;;;;;1.27;1.05;;;6.70;99.90;;;;;;4891565;29;20048;-73
2022/11/12 00:21:45;;;;;;;1.95;1.33;;;6.70;99.90;;;;;;4877401;29;20045;-73
2022/11/12 00:24:10;;;;;;;1.70;1.33;;;6.70;99.90;;;;;;4877075;29;20103;-73
2022/11/12 00:26:36;;;;;;;2.25;1.58;;;6.70;99.90;;;;;;4864440;29;20044;-73
2022/11/12 00:29:02;;;;;;;3.10;1.92;;;6.70;99.90;;;;;;4862556;29;20404;-74
2022/11/12 00:31:27;;;;;;;2.05;1.63;;;6.70;99.90;;;;;;4893524;29;20452;-74
2022/11/12 00:33:53;;;;;;;2.30;1.60;;;6.70;99.90;;;;;;4893152;29;20055;-73
2022/11/12 00:36:19;;;;;;;2.72;2.03;;;6.70;99.90;;;;;;4862172;29;20045;-74
2022/11/12 00:38:45;;;;;;;2.10;1.70;;;6.70;99.90;;;;;;4892100;29;20400;-74
2022/11/12 00:41:11;;;;;;;2.00;1.60;;;6.70;99.90;;;;;;4877993;29;20055;-74
2022/11/12 00:43:36;;;;;;;3.20;1.80;;;6.70;99.90;;;;;;4892460;29;20052;-73
2022/11/12 00:46:02;;;;;;;2.38;1.75;;;6.70;99.90;;;;;;4893383;29;20036;-73
2022/11/12 00:48:28;;;;;;;2.00;1.65;;;6.60;99.90;;;;;;4892274;29;20040;-74
2022/11/12 00:51:02;;;;;;;2.55;1.55;;;6.60;99.90;;;;;;4892453;29;20047;-73
2022/11/12 00:53:28;;;;;;;2.30;1.55;;;6.60;99.90;;;;;;4906363;29;20117;-74
2022/11/12 00:56:05;;;;;;;2.78;1.50;;;6.60;99.90;;;;;;4892461;29;20119;-74
2022/11/12 00:58:33;;;;;;;2.13;1.65;;;6.50;99.90;;;;;;4891744;29;20081;-74
2022/11/12 01:01:11;;;;;;;1.85;1.20;;;6.50;99.90;;;;;;4892581;29;20583;-73
2022/11/12 01:03:38;;;;;;;2.55;1.50;;;6.40;99.90;;;;;;4891384;29;20040;-81
2022/11/12 01:06:13;;;;;;;1.52;1.20;;;6.40;99.90;;;;;;4894554;29;20508;-81
2022/11/12 01:08:39;;;;;;;1.48;1.15;;;6.40;99.90;;;;;;4893617;29;20052;-80
2022/11/12 01:11:16;;;;;;;;;;;6.40;99.90;;;;;;4893469;29;20139;-73
2022/11/12 01:13:44;;;;;;;1.35;1.10;;;6.40;99.90;;;;;;4904190;29;20375;-74
2022/11/12 01:16:16;;;;;;;2.00;1.50;;;6.40;99.90;;;;;;4865207;29;20048;-74
2022/11/12 01:18:43;;;;;;;2.15;1.60;;;6.30;99.90;;;;;;4892420;29;20036;-74
2022/11/12 01:21:08;;;;;;;;;;;6.30;99.90;;;;;;4892591;29;20067;-73
2022/11/12 01:23:36;;;;;;;1.77;1.38;;;6.30;99.90;;;;;;4892003;29;19919;-74
2022/11/12 01:26:06;;;;;;;1.50;1.30;;;6.30;99.90;;;;;;4891787;29;20139;-74
2022/11/12 01:28:32;;;;;;;1.63;1.40;;;6.30;99.90;;;;;;4874546;29;20032;-72
2022/11/12 01:31:12;;;;;;;1.88;1.50;;;6.30;99.90;;;;;;4862979;29;20100;-72
2022/11/12 01:33:40;;;;;;;1.70;1.20;;;6.30;99.90;;;;;;4891779;29;20048;-72
2022/11/12 01:36:06;;;;;;;2.22;1.77;;;6.30;99.90;;;;;;4891508;29;20049;-72
2022/11/12 01:38:36;;;;;;;2.22;1.70;;;6.30;99.90;;;;;;4876212;29;20056;-72
2022/11/12 01:41:03;;;;;;;2.22;1.70;;;6.30;99.90;;;;;;4907020;29;20104;-73
2022/11/12 01:43:28;;;;;;;2.25;1.70;;;6.20;99.90;;;;;;4892880;29;20370;-72
2022/11/12 01:45:55;;;;;;;1.98;1.63;;;6.30;99.90;;;;;;4891993;29;20043;-73
2022/11/12 01:48:46;;;;;;;2.33;1.35;;;6.20;99.90;;;;;;4891293;29;20060;-73
2022/11/12 01:51:12;;;;;;;2.58;1.60;;;6.10;99.90;;;;;;4891855;29;20052;-73
2022/11/12 01:53:44;;;;;;;1.88;1.42;;;6.20;99.90;;;;;;4892007;29;20488;-73
2022/11/12 01:56:11;;;;;;;1.88;1.40;;;6.10;99.90;;;;;;4889275;29;20056;-73
2022/11/12 01:58:37;;;;;;;;;;;6.10;99.90;;;;;;4891526;29;20064;-74
2022/11/12 02:01:03;;;;;;;1.88;1.23;;;6.10;99.90;;;;;;4889921;29;19935;-80
2022/11/12 02:03:29;;;;;;;1.23;1.10;;;6.00;99.90;;;;;;4890093;29;20140;-80
2022/11/12 02:06:03;;;;;;;1.90;1.42;;;6.00;99.90;;;;;;4876036;29;20035;-80
2022/11/12 02:08:29;;;;;;;2.40;1.77;;;6.00;99.90;;;;;;4871219;29;20041;-80
2022/11/12 02:10:55;;;;;;;1.90;1.52;;;6.00;99.90;;;;;;4889473;29;20998;-81
2022/11/12 02:16:07;;;;;;;2.70;1.83;;;5.90;99.90;;;;;;4904937;29;20203;-80
2022/11/12 02:18:33;;;;;;;2.33;1.77;;;5.90;99.90;;;;;;4891673;29;20500;-80
2022/11/12 02:21:04;;;;;;;2.40;1.52;;;5.70;99.90;;;;;;4891345;29;20076;-80
2022/11/12 02:23:31;;;;;;;1.98;1.67;;;5.70;99.90;;;;;;4893060;29;20557;-80
2022/11/12 02:26:01;;;;;;;1.77;1.55;;;5.60;99.90;;;;;;4892224;29;20044;-80
2022/11/12 02:28:30;;;;;;;3.17;2.03;;;5.70;99.90;;;;;;4893810;29;20502;-80
2022/11/12 02:30:55;;;;;;;2.25;1.95;;;5.60;99.90;;;;;;4887838;29;20045;-80
2022/11/12 02:33:21;;;;;;;2.40;1.90;;;5.60;99.90;;;;;;4865062;29;20064;-80
2022/11/12 02:35:47;;;;;;;2.50;1.90;;;5.60;99.90;;;;;;4875853;29;20037;-81
2022/11/12 02:38:13;;;;;;;2.33;1.95;;;5.70;99.90;;;;;;4891453;29;20457;-80
2022/11/12 02:40:38;;;;;;;3.22;2.10;;;5.60;99.90;;;;;;4890563;29;20513;-80
2022/11/12 02:43:04;;;;;;;2.00;1.70;;;5.70;99.90;;;;;;4892011;29;20540;-80
2022/11/12 02:45:31;;;;;;;3.08;1.90;;;5.70;99.90;;;;;;4875286;29;20041;-80
2022/11/12 02:47:57;;;;;;;1.83;1.50;;;5.70;99.90;;;;;;4875509;29;20059;-80
2022/11/12 02:50:23;;;;;;;2.00;1.55;;;5.70;99.90;;;;;;4890586;29;20101;-80
2022/11/12 02:52:48;;;;;;;3.40;2.00;;;5.70;99.90;;;;;;4890240;29;20468;-80
2022/11/12 02:55:14;;;;;;;3.05;2.35;;;5.70;99.90;;;;;;4904061;29;20044;-80
2022/11/12 02:57:40;;;;;;;3.08;2.53;;;5.70;99.90;;;;;;4876474;29;20052;-80
2022/11/12 03:00:09;;;;;;;2.70;1.85;;;5.60;99.90;;;;;;4891538;29;20104;-80
2022/11/12 03:02:41;;;;;;;2.40;2.03;;;5.50;99.90;;;;;;4890647;29;20037;-80
2022/11/12 03:05:11;;;;;;;2.85;2.10;;;5.40;99.90;;;;;;4890490;29;20048;-80
2022/11/12 03:07:37;;;;;;;3.05;2.17;;;5.40;99.90;;;;;;4893347;29;20063;-80
2022/11/12 03:10:04;;;;;;;3.80;2.50;;;5.30;99.90;;;;;;4891584;29;20124;-80
2022/11/12 03:12:30;;;;;;;3.83;3.00;;;5.40;99.90;;;;;;4891432;29;20104;-79
2022/11/12 03:14:56;;;;;;;2.88;2.58;;;5.40;99.90;;;;;;4892825;29;20147;-79
2022/11/12 03:17:22;;;;;;;3.45;2.50;;;5.40;99.90;;;;;;4889941;29;20123;-79
2022/11/12 03:19:47;;;;;;;2.60;2.20;;;5.50;99.90;;;;;;4889979;29;20401;-80
2022/11/12 03:22:13;;;;;;;2.55;1.90;;;5.50;99.90;;;;;;4907242;29;20100;-79
2022/11/12 03:24:39;;;;;;;2.40;1.73;;;5.50;99.90;;;;;;4891038;29;20430;-80
2022/11/12 03:27:04;;;;;;;2.60;2.08;;;5.60;99.90;;;;;;4908724;29;20088;-79
2022/11/12 03:29:30;;;;;;;2.88;1.80;;;5.70;99.90;;;;;;4891145;29;20639;-80
2022/11/12 03:31:55;;;;;;;2.00;1.50;;;5.70;99.90;;;;;;4888053;29;21362;-80
2022/11/12 03:34:21;;;;;;;1.95;1.38;;;5.70;99.90;;;;;;4888911;29;20403;-79
2022/11/12 03:36:47;;;;;;;1.48;1.30;;;5.70;99.90;;;;;;4889683;29;20059;-80
2022/11/12 03:39:13;;;;;;;1.70;1.40;;;5.70;99.90;;;;;;4890335;29;20083;-80
2022/11/12 03:41:38;;;;;;;2.08;1.60;;;5.60;99.90;;;;;;4887327;29;20066;-80
2022/11/12 03:44:04;;;;;;;1.98;1.55;;;5.60;99.90;;;;;;4873735;29;21345;-80
2022/11/12 03:46:30;;;;;;;1.88;1.63;;;5.70;99.90;;;;;;4890676;29;20071;-80
2022/11/12 03:48:55;;;;;;;2.28;1.77;;;5.60;99.90;;;;;;4893113;29;20046;-80
2022/11/12 03:51:21;;;;;;;2.15;1.63;;;5.70;99.90;;;;;;4863567;29;20053;-80
2022/11/12 03:53:47;;;;;;;1.67;1.42;;;5.70;99.90;;;;;;4894105;29;20087;-79
2022/11/12 03:56:12;;;;;;;1.60;1.20;;;5.60;99.90;;;;;;4893929;29;20052;-80
2022/11/12 03:58:38;;;;;;;1.65;1.50;;;5.60;99.90;;;;;;4893582;29;20088;-80
2022/11/12 04:01:04;;;;;;;1.52;1.23;;;5.60;99.90;;;;;;4893186;29;20060;-79
2022/11/12 04:03:29;;;;;;;1.58;1.40;;;5.60;99.90;;;;;;4892447;29;20051;-80
2022/11/12 04:08:39;;;;;;;2.15;1.50;;;5.60;99.90;;;;;;4893113;29;20052;-80
2022/11/12 04:11:11;;;;;;;2.15;1.67;;;5.50;99.90;;;;;;4891407;29;20061;-80
2022/11/12 04:13:38;;;;;;;2.72;2.13;;;5.50;99.90;;;;;;4891399;29;20080;-79
2022/11/12 04:21:54;;;;;;;2.30;1.90;;;5.30;99.90;;;;;;4891955;29;20051;-80
2022/11/12 04:27:18;;;;;;;2.55;2.05;;;5.20;99.90;;;;;;4890397;29;20450;-79
2022/11/12 04:32:30;;;;;;;2.28;1.75;;;5.20;99.90;;;;;;4894981;29;20044;-80
2022/11/12 04:34:56;;;;;;;1.75;1.45;;;5.20;99.90;;;;;;4876753;29;20052;-80
2022/11/12 04:37:24;;;;;;;3.22;2.00;;;5.10;99.90;;;;;;4877605;29;20049;-80
2022/11/12 04:39:51;;;;;;;2.80;1.95;;;5.10;99.90;;;;;;4850939;29;20037;-80
2022/11/12 04:45:07;;;;;;;2.85;2.53;;;5.00;99.90;;;;;;4892913;29;20048;-80
2022/11/12 04:47:36;;;;;;;2.95;2.30;;;5.10;99.90;;;;;;4890653;29;20056;-80
2022/11/12 04:50:05;;;;;;;2.60;2.13;;;5.00;99.90;;;;;;4891161;29;20185;-80
2022/11/12 04:52:31;;;;;;;3.75;2.60;;;5.00;99.90;;;;;;4908313;29;20475;-80
2022/11/12 04:54:58;;;;;;;2.60;2.20;;;5.00;99.90;;;;;;4892988;29;20060;-80
2022/11/12 04:57:24;;;;;;;;;;;5.00;99.90;;;;;;4895441;29;20104;-80
2022/11/12 04:59:49;;;;;;;2.17;1.55;;;5.10;99.90;;;;;;4895139;29;19919;-80
2022/11/12 05:02:16;;;;;;;3.22;2.35;;;5.10;99.90;;;;;;4897547;29;20140;-80
2022/11/12 05:04:42;;;;;;;2.47;2.00;;;5.20;99.90;;;;;;4881324;29;20044;-79
2022/11/12 05:07:08;;;;;;;2.00;1.67;;;5.10;99.90;;;;;;4912153;29;20044;-80
2022/11/12 05:09:34;;;;;;;;;;;5.20;99.90;;;;;;4879772;29;20055;-80
2022/11/12 05:12:00;;;;;;;2.47;2.10;;;5.20;99.90;;;;;;4896112;29;19919;-80
2022/11/12 05:14:26;;;;;;;3.08;2.15;;;5.20;99.90;;;;;;4896283;29;20459;-80
2022/11/12 05:16:52;;;;;;;2.00;1.55;;;5.30;99.90;;;;;;4895931;29;21290;-80
2022/11/12 05:19:18;;;;;;;1.95;1.52;;;5.40;99.90;;;;;;4896853;29;20373;-79
2022/11/12 05:24:29;;;;;;;1.92;1.73;;;5.40;99.90;;;;;;4897014;29;20481;-80
2022/11/12 05:26:55;;;;;;;2.30;1.80;;;5.50;99.90;;;;;;4897888;29;20038;-78
2022/11/12 05:29:21;;;;;;;2.22;1.80;;;5.50;99.90;;;;;;4897633;29;20401;-80
2022/11/12 05:31:46;;;;;;;2.30;2.00;;;5.60;99.90;;;;;;4897433;29;20139;-80
2022/11/12 05:34:12;;;;;;;2.65;2.03;;;5.70;99.90;;;;;;4911365;29;20028;-80
2022/11/12 05:36:38;;;;;;;2.90;2.35;;;5.60;99.90;;;;;;4875490;29;20555;-81
2022/11/12 05:39:04;;;;;;;3.08;2.30;;;5.60;99.90;;;;;;4913569;29;20040;-81
2022/11/12 05:41:30;;;;;;;3.10;2.60;;;5.60;99.90;;;;;;4895630;29;20036;-81
2022/11/12 05:43:56;;;;;;;3.42;2.70;;;5.60;99.90;;;;;;4892987;29;20513;-80
2022/11/12 05:46:22;;;;;;;2.60;2.08;;;5.60;99.90;;;;;;4879872;29;20092;-80
2022/11/12 05:48:47;;;;;;;3.47;2.72;;;5.70;99.90;;;;;;4894588;29;20048;-80
2022/11/12 05:51:13;;;;;;;3.10;2.65;;;5.70;99.90;;;;;;4895110;29;20043;-80
2022/11/12 05:53:40;;;;;;;3.20;2.85;;;5.70;99.90;;;;;;4897052;29;20171;-80
2022/11/12 05:56:08;;;;;;;3.42;2.80;;;5.70;99.90;;;;;;4909401;29;20048;-80
2022/11/12 05:58:35;;;;;;;2.90;2.20;;;5.80;99.90;;;;;;4893992;29;20127;-81
2022/11/12 06:01:01;;;;;;;4.43;2.80;;;5.70;99.90;;;;;;4879580;29;20119;-80
2022/11/12 06:03:28;;;;;;;2.80;2.22;;;5.60;99.90;;;;;;4896475;29;20154;-80
2022/11/12 06:05:53;;;;;;;;;;;5.60;99.90;;;;;;4897044;29;20032;-81
2022/11/12 06:08:19;;;;;;;3.03;1.88;;;5.50;99.90;;;;;;4894081;29;20410;-80
2022/11/12 06:10:49;;;;;;;2.00;1.60;;;5.50;99.90;;;;;;4861702;29;20199;-80
2022/11/12 06:13:15;;;;;;;1.92;1.60;;;5.50;99.90;;;;;;4893917;29;20530;-80
2022/11/12 06:15:41;;;;;;;2.05;1.55;;;5.40;99.90;;;;;;4893412;29;20130;-80
2022/11/12 06:18:07;;;;;;;2.78;2.10;;;5.30;99.90;;;;;;4892895;29;20153;-80
2022/11/12 06:20:33;;;;;;;2.65;1.60;;;5.40;99.90;;;;;;4907873;29;20055;-81
2022/11/12 06:22:59;;;;;;;2.33;1.80;;;5.20;99.90;;;;;;4900115;29;20103;-80
2022/11/12 06:25:25;;;;;;;2.17;1.88;;;5.20;99.90;;;;;;4879091;29;20040;-80
2022/11/12 06:27:50;;;;;;;2.30;1.80;;;5.10;99.90;;;;;;4877239;29;20036;-81
2022/11/12 06:30:16;;;;;;;2.50;1.98;;;5.10;99.90;;;;;;4893950;29;20047;-73
2022/11/12 06:32:48;;;;;;;2.55;1.90;;;5.10;99.90;;;;;;4894209;29;20055;-74
2022/11/12 06:35:15;;;;;;;2.28;1.80;;;5.10;99.90;;;;;;4895152;29;20055;-72
2022/11/12 06:37:40;;;;;;;2.20;1.70;;;5.00;99.90;;;;;;4894468;29;20496;-73
2022/11/12 06:40:07;;;;;;;2.15;1.75;;;4.90;99.90;;;;;;4894646;29;20103;-73
2022/11/12 06:42:33;;;;;;;1.92;1.70;;;4.90;99.90;;;;;;4894376;29;20116;-74
2022/11/12 06:44:59;;;;;;;2.15;1.73;;;4.90;99.90;;;;;;4891544;29;20146;-74
2022/11/12 06:47:25;;;;;;;2.53;1.88;;;4.90;99.90;;;;;;4876814;29;20453;-74
2022/11/12 06:49:51;;;;;;;1.95;1.75;;;4.90;99.90;;;;;;4891775;29;20040;-73
2022/11/12 06:52:17;;;;;;;2.67;2.13;;;4.90;99.90;;;;;;4878043;29;20401;-74
2022/11/12 06:54:43;;;;;;;3.55;2.42;;;4.80;99.90;;;;;;4894463;29;20055;-74
2022/11/12 06:57:09;;;;;;;2.33;1.80;;;4.90;99.90;;;;;;4892685;29;20459;-72
2022/11/12 06:59:34;;;;;;;2.85;1.88;;;5.00;99.90;;;;;;4893776;29;20119;-73
2022/11/12 07:02:00;;;;;;;1.95;1.50;;;5.00;99.90;;;;;;4903988;29;20040;-72
2022/11/12 07:04:26;;;;;;;2.35;1.90;;;5.10;99.90;;;;;;4894050;29;20104;-72
2022/11/12 07:06:52;;;;;;;2.25;1.88;;;5.20;99.90;;;;;;4876019;29;20044;-72
2022/11/12 07:09:17;;;;;;;2.55;2.30;;;5.10;99.90;;;;;;4878551;29;20099;-72
2022/11/12 07:11:43;;;;;;;2.47;1.85;;;5.20;99.90;;;;;;4889063;29;20133;-72
2022/11/12 07:14:09;;;;;;;2.78;2.08;;;5.30;99.90;;;;;;4909997;29;20070;-72
2022/11/12 07:16:34;;;;;;;2.40;2.03;;;5.20;99.90;;;;;;4892008;29;20138;-72
2022/11/12 07:19:00;;;;;;;2.47;1.98;;;5.30;99.90;;;;;;4908452;29;20126;-72
2022/11/12 07:21:26;;;;;;;2.88;2.50;;;5.30;99.90;;;;;;4891108;29;20044;-73
2022/11/12 07:23:51;;;;;;;3.88;2.70;;;5.40;99.90;;;;;;4891848;29;20044;-73
2022/11/12 07:26:36;;;;;;;4.38;2.80;;;5.40;99.90;;;;;;4893224;29;20051;-73
2022/11/12 07:29:02;;;;;;;3.75;2.95;;;5.40;99.90;;;;;;4892223;29;20461;-73
2022/11/12 07:31:27;;;;;;;4.80;3.20;;;5.40;99.90;;;;;;4879001;29;20094;-73
2022/11/12 07:33:53;;;;;;;3.40;2.60;;;5.50;99.90;;;;;;4893570;29;20080;-73
2022/11/12 07:36:20;;;;;;;3.78;3.10;;;5.50;99.90;;;;;;4878708;29;20048;-73
2022/11/12 07:38:49;;;;;;;3.30;2.53;;;5.50;99.90;;;;;;4894642;29;20052;-72
2022/11/12 07:41:20;;;;;;;2.88;2.35;;;5.60;99.90;;;;;;4894720;29;20044;-73
2022/11/12 07:43:47;;;;;;;2.83;2.20;;;5.60;99.90;;;;;;4893959;29;20063;-73
2022/11/12 07:46:16;;;;;;;3.60;2.20;;;5.70;99.90;;;;;;4878818;29;20107;-73
2022/11/12 07:48:43;;;;;;;5.60;4.20;;;5.70;99.90;;;;;;4879295;29;20044;-73
2022/11/12 07:51:17;;;;;;;4.65;3.75;;;5.80;99.90;;;;;;4878580;29;20044;-73
2022/11/12 07:53:44;;;;;;;5.10;3.72;;;5.80;99.90;;;;;;4876013;29;20501;-73
2022/11/12 07:56:12;;;;;;;4.65;3.53;;;5.90;99.90;;;;;;4895036;29;20162;-73
2022/11/12 07:58:38;;;;;;;4.07;3.05;;;5.90;99.90;;;;;;4888259;29;20060;-73
2022/11/12 08:01:09;;;;;;;4.38;3.13;;;5.90;99.90;;;;;;4891583;29;20464;-71
2022/11/12 08:03:35;;;;;;;4.03;3.10;;;6.00;99.90;;;;;;4878318;29;20044;-72
2022/11/12 08:06:01;;;;;;;4.93;3.65;;;6.10;99.90;;;;;;4876433;29;20033;-72
2022/11/12 08:08:27;;;;;;;5.53;4.15;;;6.10;99.90;;;;;;4891354;29;20044;-73
2022/11/12 08:10:57;;;;;;;5.60;4.20;;;6.10;99.90;;;;;;4895024;29;20041;-78
2022/11/12 08:13:23;;;;;;;5.05;3.80;;;6.10;99.90;;;;;;4890018;29;20165;-78
2022/11/12 08:15:49;;;;;;;3.88;3.15;;;6.10;99.90;;;;;;4889579;29;20481;-78
2022/11/12 08:18:15;;;;;;;7.65;5.75;;;6.20;99.90;;;;;;4889652;29;20052;-79
2022/11/12 08:20:41;;;;;;;5.28;4.28;;;6.20;99.90;;;;;;4890885;29;20051;-78
2022/11/12 08:23:08;;;;;;;5.65;4.40;;;6.30;99.90;;;;;;4892056;29;20152;-78
2022/11/12 08:25:35;;;;;;;5.97;4.28;;;6.40;99.90;;;;;;4889734;29;20052;-79
2022/11/12 08:28:01;;;;;;;4.55;3.45;;;6.40;99.90;;;;;;4890556;29;20092;-78
2022/11/12 08:30:27;;;;;;;5.30;3.38;;;6.50;99.90;;;;;;4889575;29;20045;-78
2022/11/12 08:33:02;;;;;;;5.72;4.05;;;6.60;99.90;;;;;;4893113;29;20127;-79
2022/11/12 08:35:30;;;;;;;4.97;3.55;;;6.60;99.90;;;;;;4876978;29;20074;-79
2022/11/12 08:38:01;;;;;;;4.18;3.25;;;6.70;99.90;;;;;;4894025;29;20036;-81
2022/11/12 08:40:31;;;;;;;3.50;2.50;;;6.70;99.90;;;;;;4875357;29;20049;-79
2022/11/12 08:43:02;;;;;;;3.00;2.20;;;6.80;99.90;;;;;;4894614;29;20080;-78
2022/11/12 08:45:30;;;;;;;3.05;2.15;;;6.90;99.90;;;;;;4880023;29;20413;-79
2022/11/12 08:48:00;;;;;;;4.25;2.90;;;6.90;99.90;;;;;;4857756;29;20071;-80
2022/11/12 08:50:27;;;;;;;3.30;2.28;;;7.10;99.90;;;;;;4890319;29;20043;-73
2022/11/12 08:52:52;;;;;;;3.95;2.80;;;7.00;99.90;;;;;;4875944;29;20048;-73
2022/11/12 08:55:18;;;;;;;6.38;3.83;;;7.20;99.90;;;;;;4875714;29;20055;-74
2022/11/12 08:57:44;;;;;;;7.30;4.88;;;7.20;99.90;;;;;;4893200;29;20040;-73
2022/11/12 09:00:11;;;;;;;6.50;3.92;;;7.30;99.90;;;;;;4895778;29;20418;-73
2022/11/12 09:02:37;;;;;;;5.35;3.53;;;7.30;99.90;;;;;;4891375;29;20052;-73
2022/11/12 09:05:04;;;;;;;5.70;3.78;;;7.50;99.90;;;;;;4897276;29;20095;-73
2022/11/12 09:07:30;;;;;;;4.07;2.90;;;7.50;99.90;;;;;;4892894;29;20112;-72
2022/11/12 09:09:55;;;;;;;5.22;3.60;;;7.50;99.90;;;;;;4894478;29;20404;-73
2022/11/12 09:12:21;;;;;;;4.50;3.03;;;7.60;99.90;;;;;;4895448;29;20044;-73
2022/11/12 09:14:47;;;;;;;4.07;2.75;;;7.70;99.90;;;;;;4894646;29;20051;-73
2022/11/12 09:17:13;;;;;;;7.00;4.22;;;7.70;99.90;;;;;;4895178;29;20504;-73
2022/11/12 09:19:39;;;;;;;10.45;6.35;;;7.70;99.90;;;;;;4897258;29;20112;-73
2022/11/12 09:22:04;;;;;;;10.02;6.25;;;7.80;99.90;;;;;;4879747;29;20452;-73
2022/11/12 09:24:30;;;;;;;8.57;5.22;;;8.00;99.90;;;;;;4895474;29;20099;-73
2022/11/12 09:26:56;;;;;;;9.27;5.38;;;8.00;99.90;;;;;;4896490;29;20506;-73
2022/11/12 09:29:21;;;;;;;7.68;4.80;;;8.00;99.90;;;;;;4894056;29;20072;-73
2022/11/12 09:31:47;;;;;;;8.07;5.07;;;8.00;99.90;;;;;;4911929;29;20110;-72
2022/11/12 09:34:13;;;;;;;8.80;4.88;;;8.10;99.90;;;;;;4897942;29;20048;-72
2022/11/12 09:36:39;;;;;;;7.28;4.35;;;8.20;99.90;;;;;;4912406;29;20052;-71
2022/11/12 09:39:05;;;;;;;8.73;5.45;;;8.20;99.90;;;;;;4908790;29;20374;-74
2022/11/12 09:41:37;;;;;;;8.93;5.32;;;8.10;99.90;;;;;;4897775;29;20047;-72
2022/11/12 09:44:14;;;;;;;9.60;5.35;;;8.20;99.90;;;;;;4887540;29;20411;-74
2022/11/12 09:47:14;;;;;;;9.18;5.75;;;8.20;99.90;;;;;;4896052;29;20059;-74
2022/11/12 09:50:18;;;;;;;11.02;7.07;;;8.20;99.90;;;;;;4876456;29;20051;-73
2022/11/12 09:52:46;;;;;;;10.63;6.35;;;8.10;99.90;;;;;;4888039;29;20501;-75
2022/11/12 09:55:16;;;;;;;8.32;5.50;;;8.10;99.90;;;;;;4891946;29;20044;-73
2022/11/12 09:57:42;;;;;;;7.32;4.72;;;8.10;99.90;;;;;;4896329;29;20051;-75
2022/11/12 10:00:16;;;;;;;8.90;5.10;;;8.20;99.90;;;;;;4879409;29;20048;-73
2022/11/12 10:03:05;;;;;;;13.02;6.10;;;8.20;99.90;;;;;;4910155;29;20040;-72
2022/11/12 10:05:54;;;;;;;7.95;4.97;;;8.20;99.90;;;;;;4895529;29;20106;-73
2022/11/12 10:08:31;;;;;;;7.85;5.15;;;8.30;99.90;;;;;;4879033;29;20103;-72
2022/11/12 10:10:57;;;;;;;8.25;5.25;;;8.30;99.90;;;;;;4895707;29;20211;-71
2022/11/12 10:13:59;;;;;;;8.00;5.10;;;8.30;99.90;;;;;;4893481;29;20213;-72
2022/11/12 10:16:52;;;;;;;6.07;4.20;;;8.30;99.90;;;;;;4895082;29;20509;-73
2022/11/12 10:19:49;;;;;;;6.40;4.20;;;8.40;99.90;;;;;;4895665;29;20059;-73
2022/11/12 10:22:17;;;;;;;7.45;4.57;;;8.30;99.90;;;;;;4898549;29;20044;-73
2022/11/12 10:24:44;;;;;;;7.45;4.72;;;8.40;99.90;;;;;;4895406;29;20135;-73
2022/11/12 10:27:20;;;;;;;;;;;8.30;99.90;;;;;;4895483;29;20040;-74
2022/11/12 10:30:19;;;;;;;10.55;6.43;;;8.30;99.90;;;;;;4892377;29;20400;-74
2022/11/12 10:32:47;;;;;;;9.45;6.50;;;8.30;99.90;;;;;;4887165;29;20288;-73
2022/11/12 10:35:22;;;;;;;9.73;6.65;;;8.30;99.90;;;;;;4893116;29;20048;-74
2022/11/12 10:38:13;;;;;;;11.05;7.70;;;8.30;99.90;;;;;;4883881;29;20052;-74
2022/11/12 10:40:40;;;;;;;8.93;6.10;;;8.30;99.90;;;;;;4908990;29;20134;-74
2022/11/12 10:43:15;;;;;;;13.65;9.20;;;8.50;99.90;;;;;;4892884;29;20090;-74
2022/11/12 10:45:42;;;;;;;9.63;6.95;;;8.40;99.90;;;;;;4905966;29;20392;-74
2022/11/12 10:48:31;;;;;;;9.75;7.13;;;8.40;99.90;;;;;;4882518;29;20119;-73
2022/11/12 10:50:57;;;;;;;11.38;8.32;;;8.40;99.90;;;;;;4912089;29;20043;-74
2022/11/12 10:53:35;;;;;;;11.98;8.98;;;8.50;99.90;;;;;;4896206;29;20412;-74
2022/11/12 10:56:07;;;;;;;9.82;6.80;;;8.30;99.90;;;;;;4893366;29;20044;-73
2022/11/12 10:58:33;;;;;;;9.90;6.70;;;8.40;99.90;;;;;;4875670;29;20076;-80
2022/11/12 11:01:13;;;;;;;8.30;6.78;;;8.40;99.90;;;;;;4879106;29;20049;-80
2022/11/12 11:03:56;;;;;;;8.75;6.25;;;8.40;99.90;;;;;;4899223;29;20100;-80
2022/11/12 11:06:24;;;;;;;8.55;6.57;;;8.40;99.90;;;;;;4896395;29;20100;-80
2022/11/12 11:08:52;;;;;;;7.45;5.35;;;8.40;99.90;;;;;;4898760;29;20464;-79
2022/11/12 11:11:18;;;;;;;6.35;4.63;;;8.50;99.90;;;;;;4901344;29;20044;-79
2022/11/12 11:13:45;;;;;;;7.50;6.07;;;8.50;99.90;;;;;;4895522;29;20056;-80
2022/11/12 11:16:20;;;;;;;7.82;5.82;;;8.50;99.90;;;;;;4878729;29;20370;-80
2022/11/12 11:18:51;;;;;;;6.47;4.90;;;8.50;99.90;;;;;;4889976;29;20047;-79
2022/11/12 11:21:29;;;;;;;8.93;6.15;;;8.60;99.90;;;;;;4919789;29;20492;-79
2022/11/12 11:24:21;;;;;;;7.22;5.55;;;8.70;99.90;;;;;;4892922;29;20053;-73
2022/11/12 11:27:07;;;;;;;8.73;7.15;;;8.60;99.90;;;;;;4906288;29;20041;-73
2022/11/12 11:29:33;;;;;;;7.88;5.30;;;8.70;99.90;;;;;;4889834;29;20059;-73
2022/11/12 11:32:14;;;;;;;6.97;5.03;;;8.60;99.90;;;;;;4890045;29;20044;-73
2022/11/12 11:35:07;;;;;;;8.60;6.47;;;8.70;99.90;;;;;;4887486;29;20500;-73
2022/11/12 11:37:51;;;;;;;12.10;9.00;;;8.70;99.90;;;;;;4889517;29;20527;-73
2022/11/12 11:40:42;;;;;;;9.52;7.53;;;8.70;99.90;;;;;;4890927;29;20053;-73
2022/11/12 11:43:10;;;;;;;11.23;8.15;;;8.70;99.90;;;;;;4890546;29;20511;-73
2022/11/12 11:46:06;;;;;;;14.60;11.60;;;8.70;99.90;;;;;;4890483;29;20505;-73
2022/11/12 11:48:47;;;;;;;10.63;8.07;;;8.80;99.90;;;;;;4890720;29;20041;-73
2022/11/12 11:51:25;;;;;;;10.75;7.90;;;8.80;99.90;;;;;;4901000;29;20412;-75
2022/11/12 11:53:51;;;;;;;11.85;8.95;;;8.80;99.90;;;;;;4889266;29;20180;-75
2022/11/12 11:56:38;;;;;;;9.68;7.45;;;8.90;99.90;;;;;;4888446;29;20476;-75
2022/11/12 11:59:12;;;;;;;7.35;5.90;;;8.90;99.90;;;;;;4888177;29;20120;-73
2022/11/12 12:02:02;;;;;;;9.35;7.82;;;8.90;99.90;;;;;;4887427;29;20633;-73
2022/11/12 12:04:41;;;;;;;7.03;5.90;;;8.90;99.90;;;;;;4890101;29;20044;-73
2022/11/12 12:07:27;;;;;;;6.93;5.60;;;8.90;99.90;;;;;;4884951;29;20553;-80
2022/11/12 12:10:11;;;;;;;7.30;6.00;;;8.80;99.90;;;;;;4892227;29;20055;-74
2022/11/12 12:12:53;;;;;;;6.30;4.90;;;8.90;99.90;;;;;;4891320;29;20421;-73
2022/11/12 12:15:25;;;;;;;6.93;5.65;;;9.00;99.90;;;;;;4884831;29;20105;-74
2022/11/12 12:18:10;;;;;;;7.07;5.13;;;8.90;99.90;;;;;;4907195;29;20052;-73
2022/11/12 12:21:04;;;;;;;10.77;8.00;;;9.00;99.90;;;;;;4907657;29;20519;-71
2022/11/12 12:23:49;;;;;;;8.35;7.28;;;9.00;99.90;;;;;;4889340;29;21555;-73
2022/11/12 12:26:23;;;;;;;8.18;6.60;;;9.10;99.90;;;;;;4892966;29;20041;-73
2022/11/12 12:29:11;;;;;;;7.75;6.13;;;9.10;99.90;;;;;;4867666;29;20079;-73
2022/11/12 12:31:51;;;;;;;9.40;7.50;;;9.20;99.90;;;;;;4889630;29;20131;-71
2022/11/12 12:34:20;;;;;;;8.13;6.65;;;9.20;99.90;;;;;;4890177;29;20048;-73
2022/11/12 12:36:53;;;;;;;8.25;6.70;;;9.20;99.90;;;;;;4894075;29;20481;-74
2022/11/12 12:39:56;;;;;;;8.23;6.50;;;9.20;99.90;;;;;;4867139;29;20059;-74
2022/11/12 12:42:28;;;;;;;8.15;5.65;;;9.20;99.90;;;;;;4880337;29;20436;-73
2022/11/12 12:45:04;;;;;;;9.93;7.55;;;9.30;99.90;;;;;;4893719;29;20100;-73
2022/11/12 12:47:43;;;;;;;6.68;5.35;;;9.30;99.90;;;;;;4893369;29;20088;-73
2022/11/12 12:50:13;;;;;;;8.13;6.43;;;9.40;99.90;;;;;;4891107;29;20134;-73
2022/11/12 12:53:17;;;;;;;6.32;5.32;;;9.40;99.90;;;;;;4892834;29;20520;-73
2022/11/12 12:55:49;;;;;;;5.38;4.65;;;9.30;99.90;;;;;;4877689;29;20052;-75
2022/11/12 12:58:27;;;;;;;11.52;9.30;;;9.40;99.90;;;;;;4909896;29;20057;-73
2022/11/12 13:01:02;;;;;;;10.55;8.43;;;9.40;99.90;;;;;;4897240;29;20745;-79
2022/11/12 13:03:43;;;;;;;10.15;8.75;;;9.40;99.90;;;;;;4898289;29;20043;-79
2022/11/12 13:06:23;;;;;;;10.13;8.00;;;9.40;99.90;;;;;;4891033;29;20066;-79
2022/11/12 13:09:13;;;;;;;9.75;7.88;;;9.30;99.90;;;;;;4912235;29;20076;-74
2022/11/12 13:14:38;;;;;;;7.07;6.07;;;9.40;99.90;;;;;;4896185;29;20052;-74
2022/11/12 13:17:08;;;;;;;9.00;6.70;;;9.40;99.90;;;;;;4909460;29;20048;-74
2022/11/12 13:19:38;;;;;;;6.53;5.50;;;9.50;99.90;;;;;;4912913;29;20234;-74
2022/11/12 13:22:39;;;;;;;6.75;5.38;;;9.60;99.90;;;;;;4895203;29;20054;-74
2022/11/12 13:25:10;;;;;;;7.05;5.80;;;9.80;99.90;;;;;;4879651;29;20079;-74
2022/11/12 13:27:48;;;;;;;6.00;5.35;;;9.90;99.90;;;;;;4880562;29;20040;-74
2022/11/12 13:30:15;;;;;;;8.43;6.10;;;9.90;99.90;;;;;;4879804;29;20036;-74
2022/11/12 13:32:46;;;;;;;7.13;5.88;;;9.90;99.90;;;;;;4881277;29;20047;-73
2022/11/12 13:35:20;;;;;;;7.32;6.25;;;9.90;99.90;;;;;;4895873;29;20044;-73
2022/11/12 13:37:53;;;;;;;6.70;5.57;;;9.90;99.90;;;;;;4895875;29;20448;-73
2022/11/12 13:40:29;;;;;;;6.85;5.72;;;9.90;99.90;;;;;;4879713;29;20040;-73